createdAt,value
2022-11-14T00:01:49.111Z,24.00
2022-11-14T00:04:39.407Z,23.20
2022-11-14T00:07:33.550Z,21.10
2022-11-14T00:10:24.089Z,19.60
2022-11-14T00:13:14.946Z,21.00
2022-11-14T00:16:05.272Z,19.70
2022-11-14T00:18:55.212Z,21.80
2022-11-14T00:21:46.086Z,20.60
2022-11-14T00:24:35.424Z,15.60
2022-11-14T00:27:25.084Z,20.20
2022-11-14T00:30:16.678Z,18.00
2022-11-14T00:33:06.665Z,16.30
2022-11-14T00:35:59.756Z,13.70
2022-11-14T00:38:55.613Z,18.20
2022-11-14T00:41:44.347Z,19.80
2022-11-14T00:44:33.304Z,19.40
2022-11-14T00:47:24.256Z,19.10
2022-11-14T00:50:15.047Z,17.60
2022-11-14T00:53:05.123Z,18.20
2022-11-14T00:55:55.387Z,18.00
2022-11-14T00:58:45.413Z,19.70
2022-11-14T01:01:37.585Z,21.30
2022-11-14T01:04:26.675Z,24.40
2022-11-14T01:07:16.203Z,28.20
2022-11-14T01:10:07.390Z,26.30
2022-11-14T01:12:58.587Z,27.40
2022-11-14T01:15:51.572Z,24.60
2022-11-14T01:18:43.240Z,24.30
2022-11-14T01:21:33.466Z,24.70
2022-11-14T01:24:24.864Z,27.40
2022-11-14T01:27:14.868Z,28.00
2022-11-14T01:30:04.571Z,29.60
2022-11-14T01:36:02.502Z,27.50
2022-11-14T01:38:56.274Z,26.70
2022-11-14T01:41:46.508Z,27.30
2022-11-14T01:44:56.588Z,27.30
2022-11-14T01:47:46.008Z,27.90
2022-11-14T01:50:36.512Z,29.70
2022-11-14T01:53:26.538Z,31.00
2022-11-14T01:56:20.259Z,29.80
2022-11-14T01:59:14.322Z,30.40
2022-11-14T02:02:15.528Z,28.10
2022-11-14T02:05:09.565Z,28.70
2022-11-14T02:08:00.644Z,28.70
2022-11-14T02:10:49.315Z,27.90
2022-11-14T02:13:41.394Z,29.30
2022-11-14T02:16:29.283Z,28.10
2022-11-14T02:19:21.157Z,29.20
2022-11-14T02:22:11.552Z,28.60
2022-11-14T02:27:52.408Z,28.50
2022-11-14T02:30:44.893Z,27.90
2022-11-14T02:33:35.003Z,27.40
2022-11-14T02:36:26.307Z,30.00
2022-11-14T02:39:14.849Z,31.00
2022-11-14T02:42:05.594Z,30.10
2022-11-14T02:44:54.149Z,27.70
2022-11-14T02:47:45.427Z,29.30
2022-11-14T02:50:36.203Z,30.30
2022-11-14T02:53:28.758Z,29.40
2022-11-14T02:56:19.189Z,29.90
2022-11-14T03:01:58.890Z,29.90
2022-11-14T03:04:47.537Z,24.50
2022-11-14T03:07:35.710Z,30.00
2022-11-14T03:10:26.188Z,32.10
2022-11-14T03:13:17.335Z,33.60
2022-11-14T03:16:11.648Z,31.40
2022-11-14T03:19:02.216Z,28.60
2022-11-14T03:21:52.224Z,29.10
2022-11-14T03:24:42.684Z,31.30
2022-11-14T03:27:32.662Z,30.20
2022-11-14T03:30:22.195Z,32.80
2022-11-14T03:33:14.630Z,31.80
2022-11-14T03:36:06.166Z,32.00
2022-11-14T03:38:57.201Z,32.20
2022-11-14T03:41:48.586Z,29.50
2022-11-14T03:44:39.837Z,29.50
2022-11-14T03:47:28.897Z,29.20
2022-11-14T03:50:20.030Z,27.90
2022-11-14T03:53:10.202Z,28.80
2022-11-14T03:56:01.542Z,29.00
2022-11-14T03:58:52.538Z,28.00
2022-11-14T04:01:43.351Z,31.10
2022-11-14T04:04:33.719Z,29.30
2022-11-14T04:07:23.584Z,26.80
2022-11-14T04:10:14.664Z,28.70
2022-11-14T04:13:06.782Z,27.20
2022-11-14T04:15:56.743Z,26.80
2022-11-14T04:18:46.834Z,28.10
2022-11-14T04:21:34.932Z,30.00
2022-11-14T04:24:24.140Z,31.70
2022-11-14T04:27:15.354Z,31.40
2022-11-14T04:30:08.759Z,29.30
2022-11-14T04:32:59.096Z,30.10
2022-11-14T04:35:50.092Z,28.90
2022-11-14T04:38:39.742Z,27.60
2022-11-14T04:41:29.922Z,29.80
2022-11-14T04:44:20.672Z,30.50
2022-11-14T04:47:12.636Z,29.80
2022-11-14T04:50:03.302Z,31.50
2022-11-14T04:52:55.118Z,28.60
2022-11-14T04:58:38.105Z,26.00
2022-11-14T05:01:27.867Z,26.60
2022-11-14T05:04:17.863Z,26.50
2022-11-14T05:07:07.069Z,25.60
2022-11-14T05:10:00.583Z,24.60
2022-11-14T05:12:50.514Z,26.10
2022-11-14T05:15:41.540Z,26.20
2022-11-14T05:18:32.103Z,29.00
2022-11-14T05:21:24.415Z,27.60
2022-11-14T05:24:15.072Z,25.70
2022-11-14T05:29:53.052Z,25.10
2022-11-14T05:32:46.137Z,23.70
2022-11-14T05:35:35.056Z,25.00
2022-11-14T05:38:25.614Z,27.70
2022-11-14T05:41:18.566Z,29.10
2022-11-14T05:44:12.067Z,29.30
2022-11-14T05:47:01.127Z,27.90
2022-11-14T05:49:49.414Z,23.20
2022-11-14T05:52:36.995Z,27.20
2022-11-14T05:55:25.328Z,24.30
2022-11-14T05:58:13.017Z,24.90
2022-11-14T06:01:15.519Z,25.40
2022-11-14T06:04:06.811Z,25.50
2022-11-14T06:06:54.690Z,26.90
2022-11-14T06:09:42.332Z,29.00
2022-11-14T06:12:32.618Z,26.40
2022-11-14T06:15:19.812Z,25.70
2022-11-14T06:18:07.531Z,25.70
2022-11-14T06:20:55.137Z,25.10
2022-11-14T06:23:44.130Z,24.70
2022-11-14T06:26:33.240Z,25.20
2022-11-14T06:29:20.734Z,26.60
2022-11-14T06:32:08.402Z,28.20
2022-11-14T06:34:56.499Z,26.90
2022-11-14T06:37:43.993Z,27.40
2022-11-14T06:40:31.828Z,23.70
2022-11-14T06:43:19.427Z,25.80
2022-11-14T06:46:09.288Z,25.10
2022-11-14T06:48:56.890Z,24.10
2022-11-14T06:51:45.241Z,26.90
2022-11-14T06:54:32.596Z,25.80
2022-11-14T06:57:19.882Z,27.10
2022-11-14T07:00:08.171Z,27.50
2022-11-14T07:02:56.017Z,26.70
2022-11-14T07:05:43.315Z,27.50
2022-11-14T07:08:32.171Z,28.70
2022-11-14T07:11:26.546Z,32.20
2022-11-14T07:14:14.167Z,37.10
2022-11-14T07:17:01.493Z,31.90
2022-11-14T07:19:49.348Z,33.60
2022-11-14T07:22:38.046Z,29.50
2022-11-14T07:25:25.795Z,29.50
2022-11-14T07:28:13.259Z,28.00
2022-11-14T07:31:04.149Z,28.80
2022-11-14T07:33:51.436Z,26.50
2022-11-14T07:36:38.940Z,23.00
2022-11-14T07:39:26.046Z,24.50
2022-11-14T07:42:14.462Z,28.50
2022-11-14T07:45:01.843Z,26.40
2022-11-14T07:47:49.469Z,27.60
2022-11-14T07:50:36.773Z,28.00
2022-11-14T07:53:25.022Z,28.20
2022-11-14T07:56:13.336Z,27.40
2022-11-14T07:59:01.101Z,31.50
2022-11-14T08:01:48.507Z,31.30
2022-11-14T08:04:36.369Z,28.10
2022-11-14T08:07:23.793Z,30.60
2022-11-14T08:10:14.657Z,36.20
2022-11-14T08:13:30.416Z,35.60
2022-11-14T08:16:14.305Z,35.20
2022-11-14T08:19:01.874Z,32.30
2022-11-14T08:21:49.811Z,29.20
2022-11-14T08:24:37.527Z,29.60
2022-11-14T08:27:26.383Z,27.90
2022-11-14T08:30:14.040Z,30.50
2022-11-14T08:33:06.361Z,30.80
2022-11-14T08:35:54.194Z,27.60
2022-11-14T08:38:41.974Z,25.00
2022-11-14T08:41:29.268Z,26.10
2022-11-14T08:44:16.929Z,28.50
2022-11-14T08:47:04.621Z,26.20
2022-11-14T08:49:52.319Z,32.80
2022-11-14T08:52:40.510Z,28.70
2022-11-14T08:55:28.836Z,35.50
2022-11-14T08:58:16.913Z,31.20
2022-11-14T09:01:07.340Z,36.60
2022-11-14T09:03:59.612Z,32.60
2022-11-14T09:06:48.211Z,32.70
2022-11-14T09:09:35.453Z,29.10
2022-11-14T09:12:23.560Z,34.50
2022-11-14T09:15:11.047Z,35.80
2022-11-14T09:17:59.316Z,37.20
2022-11-14T09:20:46.856Z,36.60
2022-11-14T09:23:35.579Z,38.00
2022-11-14T09:26:23.112Z,41.00
2022-11-14T09:29:11.068Z,31.60
2022-11-14T09:31:59.902Z,37.90
2022-11-14T09:34:48.543Z,34.20
2022-11-14T09:37:44.208Z,35.20
2022-11-14T09:41:44.967Z,36.00
2022-11-14T09:48:43.423Z,32.80
2022-11-14T09:52:22.759Z,37.70
2022-11-14T09:55:23.711Z,42.60
2022-11-14T09:58:20.707Z,43.30
2022-11-14T10:01:17.932Z,30.40
2022-11-14T10:04:35.075Z,28.80
2022-11-14T10:08:09.631Z,35.40
2022-11-14T10:11:29.348Z,31.50
2022-11-14T10:14:27.224Z,33.20
2022-11-14T10:17:47.930Z,34.40
2022-11-14T10:20:49.136Z,34.90
2022-11-14T10:24:04.000Z,32.00
2022-11-14T10:27:03.309Z,32.40
2022-11-14T10:29:59.075Z,31.90
2022-11-14T10:33:04.113Z,32.00
2022-11-14T10:36:01.006Z,37.00
2022-11-14T10:38:55.203Z,38.80
2022-11-14T10:41:56.676Z,38.90
2022-11-14T10:45:13.483Z,37.60
2022-11-14T10:48:24.250Z,36.20
2022-11-14T10:51:38.008Z,35.50
2022-11-14T10:54:33.199Z,38.20
2022-11-14T10:57:22.920Z,36.40
2022-11-14T11:00:23.221Z,36.20
2022-11-14T11:03:11.510Z,35.50
2022-11-14T11:05:58.794Z,30.80
2022-11-14T11:09:04.650Z,34.30
2022-11-14T11:12:02.093Z,32.40
2022-11-14T11:15:09.189Z,40.50
2022-11-14T11:18:02.507Z,34.30
2022-11-14T11:21:03.781Z,36.40
2022-11-14T11:23:55.580Z,38.30
2022-11-14T11:26:43.895Z,36.60
2022-11-14T11:29:31.347Z,38.50
2022-11-14T11:32:26.800Z,38.40
2022-11-14T11:35:17.046Z,33.90
2022-11-14T11:38:05.730Z,32.80
2022-11-14T11:40:58.337Z,36.10
2022-11-14T11:43:57.035Z,33.80
2022-11-14T11:46:54.275Z,33.40
2022-11-14T11:49:54.374Z,31.80
2022-11-14T11:53:30.459Z,32.10
2022-11-14T11:56:25.907Z,44.20
2022-11-14T11:59:26.243Z,35.00
2022-11-14T12:02:29.169Z,40.40
2022-11-14T12:05:44.950Z,34.50
2022-11-14T12:08:47.472Z,32.10
2022-11-14T12:11:38.148Z,35.70
2022-11-14T12:14:38.930Z,31.80
2022-11-14T12:17:35.776Z,31.30
2022-11-14T12:20:51.964Z,31.00
2022-11-14T12:24:06.772Z,29.40
2022-11-14T12:27:16.768Z,27.40
2022-11-14T12:30:25.750Z,22.30
2022-11-14T12:33:31.804Z,20.90
2022-11-14T12:36:19.547Z,20.10
2022-11-14T12:39:21.300Z,22.60
2022-11-14T12:42:15.861Z,17.50
2022-11-14T12:45:03.865Z,18.40
2022-11-14T12:48:31.674Z,18.90
2022-11-14T12:51:25.763Z,19.50
2022-11-14T12:54:46.327Z,18.70
2022-11-14T13:01:02.699Z,17.90
2022-11-14T13:04:24.191Z,18.30
2022-11-14T13:07:36.539Z,19.00
2022-11-14T13:10:42.065Z,19.80
2022-11-14T13:13:48.236Z,22.90
2022-11-14T13:16:54.236Z,31.00
2022-11-14T13:20:07.228Z,28.20
2022-11-14T13:22:55.333Z,24.30
2022-11-14T13:25:44.733Z,24.10
2022-11-14T13:28:51.693Z,26.00
2022-11-14T13:31:48.055Z,28.60
2022-11-14T13:35:00.159Z,22.80
2022-11-14T13:38:03.617Z,22.40
2022-11-14T13:41:08.442Z,22.10
2022-11-14T13:43:56.264Z,21.60
2022-11-14T13:46:46.628Z,20.90
2022-11-14T13:50:01.745Z,26.00
2022-11-14T13:52:49.391Z,24.50
2022-11-14T13:55:49.781Z,24.40
2022-11-14T13:58:54.821Z,22.10
2022-11-14T14:02:09.976Z,23.00
2022-11-14T14:05:28.685Z,26.00
2022-11-14T14:08:22.020Z,26.80
2022-11-14T14:11:10.508Z,25.00
2022-11-14T14:14:01.307Z,24.00
2022-11-14T14:16:58.566Z,24.70
2022-11-14T14:20:10.064Z,18.30
2022-11-14T14:23:10.615Z,18.00
2022-11-14T14:29:16.641Z,18.90
2022-11-14T14:32:16.154Z,14.90
2022-11-14T14:35:23.357Z,25.40
2022-11-14T14:38:23.433Z,25.70
2022-11-14T14:41:14.736Z,32.90
2022-11-14T14:44:02.984Z,27.90
2022-11-14T14:46:50.753Z,27.90
2022-11-14T14:49:39.807Z,43.20
2022-11-14T14:52:34.332Z,30.70
2022-11-14T14:55:29.050Z,35.40
2022-11-14T14:58:38.642Z,27.90
2022-11-14T15:01:34.740Z,27.90
2022-11-14T15:04:26.619Z,23.90
2022-11-14T15:07:25.492Z,23.10
2022-11-14T15:10:34.092Z,28.50
2022-11-14T15:13:24.018Z,29.90
2022-11-14T15:16:12.563Z,28.10
2022-11-14T15:19:01.344Z,30.80
2022-11-14T15:22:18.214Z,40.00
2022-11-14T15:25:11.593Z,33.70
2022-11-14T15:28:00.569Z,29.50
2022-11-14T15:31:02.191Z,34.90
2022-11-14T15:34:44.996Z,32.60
2022-11-14T15:37:33.537Z,32.40
2022-11-14T15:40:23.449Z,37.60
2022-11-14T15:43:45.649Z,31.10
2022-11-14T15:46:42.224Z,35.50
2022-11-14T15:49:30.101Z,43.50
2022-11-14T15:52:25.030Z,46.90
2022-11-14T15:55:21.039Z,57.90
2022-11-14T15:58:27.675Z,74.10
2022-11-14T16:01:23.232Z,63.70
2022-11-14T16:04:18.986Z,51.40
2022-11-14T16:07:06.991Z,45.40
2022-11-14T16:09:55.642Z,54.40
2022-11-14T16:12:45.710Z,57.20
2022-11-14T16:15:35.861Z,59.80
2022-11-14T16:18:23.516Z,70.30
2022-11-14T16:21:16.657Z,97.60
2022-11-14T16:24:05.058Z,116.80
2022-11-14T16:26:52.782Z,126.50
2022-11-14T16:29:40.143Z,123.90
2022-11-14T16:32:28.692Z,134.00
2022-11-14T16:35:18.977Z,127.80
2022-11-14T16:40:53.486Z,133.40
2022-11-14T16:43:41.699Z,135.80
2022-11-14T16:46:29.496Z,137.10
2022-11-14T16:49:19.848Z,180.50
2022-11-14T16:52:09.271Z,168.30
2022-11-14T16:54:57.196Z,170.80
2022-11-14T16:57:44.517Z,157.60
2022-11-14T17:00:31.894Z,132.70
2022-11-14T17:03:19.587Z,109.60
2022-11-14T17:06:12.468Z,86.90
2022-11-14T17:09:01.219Z,87.70
2022-11-14T17:11:49.089Z,79.30
2022-11-14T17:14:36.622Z,63.40
2022-11-14T17:17:24.607Z,65.30
2022-11-14T17:20:12.122Z,67.50
2022-11-14T17:22:59.526Z,86.90
2022-11-14T17:25:48.182Z,88.60
2022-11-14T17:28:35.855Z,70.10
2022-11-14T17:31:24.088Z,84.80
2022-11-14T17:34:11.959Z,77.90
2022-11-14T17:36:59.778Z,140.40
2022-11-14T17:39:47.519Z,95.30
2022-11-14T17:42:34.928Z,117.30
2022-11-14T17:45:22.735Z,138.40
2022-11-14T17:48:10.114Z,114.00
2022-11-14T17:51:07.017Z,135.10
2022-11-14T17:53:55.068Z,129.70
2022-11-14T17:56:48.499Z,192.50
2022-11-14T17:59:39.396Z,82.10
2022-11-14T18:02:41.052Z,65.60
2022-11-14T18:05:46.661Z,132.20
2022-11-14T18:08:57.035Z,179.60
2022-11-14T18:12:11.081Z,148.90
2022-11-14T18:15:27.748Z,180.10
2022-11-14T18:18:37.872Z,79.30
2022-11-14T18:21:53.205Z,31.90
2022-11-14T18:24:58.021Z,35.70
2022-11-14T18:28:12.410Z,26.60
2022-11-14T18:31:19.821Z,24.50
2022-11-14T18:34:27.355Z,32.10
2022-11-14T18:37:38.651Z,36.60
2022-11-14T18:40:58.562Z,42.10
2022-11-14T18:44:16.482Z,44.30
2022-11-14T18:47:04.533Z,42.00
2022-11-14T18:50:13.179Z,35.30
2022-11-14T18:53:19.266Z,33.70
2022-11-14T18:56:09.633Z,32.20
2022-11-14T18:58:58.242Z,35.30
2022-11-14T19:01:46.316Z,32.50
2022-11-14T19:04:35.514Z,28.10
2022-11-14T19:07:24.013Z,28.20
2022-11-14T19:10:12.089Z,25.80
2022-11-14T19:13:00.202Z,24.30
2022-11-14T19:15:47.856Z,25.50
2022-11-14T19:18:35.213Z,25.90
2022-11-14T19:21:23.132Z,24.70
2022-11-14T19:24:10.660Z,26.20
2022-11-14T19:26:58.753Z,28.10
2022-11-14T19:29:46.336Z,31.90
2022-11-14T19:32:34.697Z,34.80
2022-11-14T19:35:22.239Z,28.30
2022-11-14T19:38:09.814Z,28.70
2022-11-14T19:41:02.078Z,32.40
2022-11-14T19:43:51.992Z,32.90
2022-11-14T19:46:43.025Z,30.20
2022-11-14T19:49:35.046Z,34.30
2022-11-14T19:52:24.692Z,32.40
2022-11-14T19:55:12.524Z,25.40
2022-11-14T19:57:59.902Z,23.80
2022-11-14T20:00:47.600Z,22.20
2022-11-14T20:03:36.043Z,23.40
2022-11-14T20:06:35.056Z,20.30
2022-11-14T20:09:23.022Z,20.70
2022-11-14T20:12:10.901Z,19.50
2022-11-14T20:14:58.436Z,17.00
2022-11-14T20:17:45.885Z,21.90
2022-11-14T20:20:34.831Z,24.30
2022-11-14T20:23:23.053Z,20.50
2022-11-14T20:26:12.234Z,19.80
2022-11-14T20:29:00.256Z,19.70
2022-11-14T20:31:48.024Z,19.20
2022-11-14T20:34:36.096Z,21.60
2022-11-14T20:37:23.347Z,26.60
2022-11-14T20:40:11.927Z,27.00
2022-11-14T20:43:00.150Z,19.70
2022-11-14T20:46:02.937Z,22.70
2022-11-14T20:48:51.214Z,23.10
2022-11-14T20:51:39.252Z,22.70
2022-11-14T20:54:27.718Z,23.00
2022-11-14T20:57:15.257Z,20.30
2022-11-14T21:00:04.234Z,19.80
2022-11-14T21:02:51.603Z,20.20
2022-11-14T21:05:40.280Z,19.50
2022-11-14T21:08:29.272Z,19.20
2022-11-14T21:11:18.655Z,18.40
2022-11-14T21:14:06.613Z,18.90
2022-11-14T21:16:54.076Z,18.70
2022-11-14T21:19:41.983Z,19.70
2022-11-14T21:22:29.741Z,17.80
2022-11-14T21:25:17.358Z,19.70
2022-11-14T21:28:05.111Z,19.30
2022-11-14T21:30:53.111Z,19.70
2022-11-14T21:33:40.503Z,18.10
2022-11-14T21:36:46.251Z,20.70
2022-11-14T21:39:34.025Z,21.80
2022-11-14T21:42:21.299Z,25.60
2022-11-14T21:45:09.856Z,22.20
2022-11-14T21:47:57.674Z,19.80
2022-11-14T21:50:45.052Z,20.10
2022-11-14T21:53:34.260Z,20.90
2022-11-14T21:56:23.537Z,19.70
2022-11-14T21:59:21.652Z,20.90
2022-11-14T22:02:31.860Z,20.50
2022-11-14T22:05:19.384Z,21.00
2022-11-14T22:08:06.765Z,25.20
2022-11-14T22:11:00.814Z,25.10
2022-11-14T22:13:49.446Z,23.50
2022-11-14T22:16:37.296Z,23.70
2022-11-14T22:19:25.158Z,23.50
2022-11-14T22:22:13.244Z,22.20
2022-11-14T22:25:01.137Z,31.10
2022-11-14T22:27:48.583Z,47.90
2022-11-14T22:30:35.975Z,26.20
2022-11-14T22:33:23.404Z,20.40
2022-11-14T22:36:22.901Z,20.50
2022-11-14T22:39:11.216Z,18.90
2022-11-14T22:41:58.783Z,19.80
2022-11-14T22:44:46.592Z,21.60
2022-11-14T22:47:33.734Z,20.00
2022-11-14T22:50:21.707Z,31.10
2022-11-14T22:53:09.727Z,23.10
2022-11-14T22:55:58.353Z,21.80
2022-11-14T22:58:46.623Z,22.70
2022-11-14T23:01:33.907Z,21.90
2022-11-14T23:04:21.548Z,26.10
2022-11-14T23:07:09.285Z,33.00
2022-11-14T23:09:56.940Z,31.50
2022-11-14T23:12:44.975Z,27.80
2022-11-14T23:15:50.959Z,28.90
2022-11-14T23:18:38.627Z,30.70
2022-11-14T23:21:28.976Z,39.00
2022-11-14T23:24:16.351Z,38.90
2022-11-14T23:27:04.481Z,34.00
2022-11-14T23:29:52.118Z,39.20
2022-11-14T23:32:40.387Z,38.30
2022-11-14T23:35:28.084Z,36.10
2022-11-14T23:38:15.916Z,31.90
2022-11-14T23:41:03.476Z,36.20
2022-11-14T23:43:51.605Z,35.40
2022-11-14T23:46:38.807Z,29.20
2022-11-14T23:49:26.967Z,26.40
2022-11-14T23:52:14.229Z,27.10
2022-11-14T23:55:03.317Z,26.00
2022-11-14T23:57:53.740Z,28.20
